Time;durP1;ratioP1;P1;durP2;ratioP2;P2;SDS_P1;SDS_P2;PMS_P1;PMS_P2;Temp;Humidity;BMP_temperature;BMP_pressure;BME280_temperature;BME280_humidity;BME280_pressure;Samples;Min_cycle;Max_cycle;Signal;HPM_P1;HPM_P2
2021/03/08 00:01:09;;;;;;;11.27;5.87;;;1.60;97.30;;;;;;5021197;28;20177;-80
2021/03/08 00:03:34;;;;;;;10.53;5.73;;;1.50;97.30;;;;;;5021133;28;20174;-81
2021/03/08 00:06:00;;;;;;;15.20;7.17;;;1.50;97.30;;;;;;5020594;28;20240;-80
2021/03/08 00:08:26;;;;;;;16.87;6.47;;;1.50;97.30;;;;;;5020869;28;20236;-81
2021/03/08 00:10:51;;;;;;;14.83;7.70;;;1.50;97.30;;;;;;5021529;28;20181;-81
2021/03/08 00:13:17;;;;;;;12.20;6.20;;;1.50;97.30;;;;;;5021365;28;20181;-81
2021/03/08 00:15:43;;;;;;;20.83;7.53;;;1.60;97.30;;;;;;5022053;28;20213;-81
2021/03/08 00:18:08;;;;;;;11.70;6.20;;;1.60;97.30;;;;;;5022143;28;20177;-81
2021/03/08 00:20:34;;;;;;;13.90;6.67;;;1.60;97.30;;;;;;5022056;28;20181;-82
2021/03/08 00:22:59;;;;;;;9.80;6.27;;;1.60;97.30;;;;;;5022602;28;20661;-82
2021/03/08 00:25:31;;;;;;;11.27;6.50;;;1.60;97.30;;;;;;5022248;28;20573;-81
2021/03/08 00:27:57;;;;;;;11.40;6.80;;;1.70;97.30;;;;;;5021840;28;20239;-81
2021/03/08 00:30:23;;;;;;;11.83;6.13;;;1.70;97.30;;;;;;5021993;28;20420;-82
2021/03/08 00:32:48;;;;;;;12.23;6.67;;;1.70;97.30;;;;;;5021909;28;20442;-81
2021/03/08 00:35:17;;;;;;;17.93;6.53;;;1.80;97.30;;;;;;5024680;28;20212;-81
2021/03/08 00:37:43;;;;;;;11.93;6.27;;;1.80;97.30;;;;;;5024755;28;20559;-80
2021/03/08 00:40:15;;;;;;;16.30;7.17;;;1.80;97.30;;;;;;5024498;28;20500;-81
2021/03/08 00:42:41;;;;;;;12.60;6.90;;;1.80;97.30;;;;;;5023906;28;20639;-80
2021/03/08 00:45:13;;;;;;;16.40;7.30;;;1.70;97.30;;;;;;5022915;28;20976;-81
2021/03/08 00:47:39;;;;;;;17.57;7.20;;;1.70;97.30;;;;;;5023551;28;20423;-81
2021/03/08 00:50:13;;;;;;;14.50;8.53;;;1.70;97.30;;;;;;5025077;28;20428;-81
2021/03/08 00:52:39;;;;;;;15.20;7.03;;;1.60;97.30;;;;;;5024284;28;20416;-81
2021/03/08 00:55:05;;;;;;;15.50;7.10;;;1.60;97.30;;;;;;5025119;28;20970;-82
2021/03/08 00:57:30;;;;;;;11.47;7.43;;;1.60;97.30;;;;;;5024183;28;20187;-81
2021/03/08 00:59:56;;;;;;;16.83;8.40;;;1.60;97.30;;;;;;5024265;28;20438;-81
2021/03/08 01:02:22;;;;;;;15.10;7.47;;;1.70;97.30;;;;;;5023591;28;20177;-82
2021/03/08 01:04:47;;;;;;;17.53;7.70;;;1.70;97.30;;;;;;5022790;28;20228;-82
2021/03/08 01:07:13;;;;;;;16.87;7.13;;;1.60;97.30;;;;;;5022587;28;20184;-81
2021/03/08 01:09:38;;;;;;;13.23;6.87;;;1.60;97.30;;;;;;5021115;28;20477;-81
2021/03/08 01:12:05;;;;;;;14.70;8.17;;;1.60;97.30;;;;;;5022083;28;20617;-82
2021/03/08 01:14:31;;;;;;;15.60;7.80;;;1.50;97.30;;;;;;5022339;28;20205;-82
2021/03/08 01:17:01;;;;;;;13.27;7.43;;;1.50;97.30;;;;;;5024514;28;20420;-82
2021/03/08 01:19:30;;;;;;;18.87;8.30;;;1.50;97.30;;;;;;5034913;28;20232;-82
2021/03/08 01:21:55;;;;;;;14.80;8.27;;;1.50;97.30;;;;;;5029717;28;20503;-82
2021/03/08 01:24:21;;;;;;;15.37;7.80;;;1.50;97.30;;;;;;5026857;28;20444;-82
2021/03/08 01:26:47;;;;;;;15.67;8.60;;;1.50;97.30;;;;;;5018264;28;20185;-82
2021/03/08 01:29:12;;;;;;;19.63;8.70;;;1.50;97.30;;;;;;5018531;28;20267;-82
2021/03/08 01:31:38;;;;;;;19.93;8.97;;;1.60;97.30;;;;;;5018597;28;20253;-82
2021/03/08 01:34:04;;;;;;;18.80;8.73;;;1.60;97.30;;;;;;5019210;28;20216;-82
2021/03/08 01:36:29;;;;;;;18.17;8.83;;;1.60;97.30;;;;;;5020328;28;20200;-82
2021/03/08 01:38:55;;;;;;;21.93;9.70;;;1.60;97.30;;;;;;5020170;28;20188;-82
2021/03/08 01:41:21;;;;;;;17.07;8.73;;;1.60;97.30;;;;;;5020319;28;20560;-81
2021/03/08 01:43:46;;;;;;;23.53;10.13;;;1.60;97.30;;;;;;5020874;28;20181;-81
2021/03/08 01:46:12;;;;;;;15.90;8.63;;;1.60;97.30;;;;;;5021600;28;20180;-82
2021/03/08 01:48:37;;;;;;;19.23;9.77;;;1.60;97.30;;;;;;5021335;28;20185;-81
2021/03/08 01:51:05;;;;;;;20.73;10.10;;;1.60;97.30;;;;;;5020758;28;20208;-82
2021/03/08 01:53:31;;;;;;;20.93;9.93;;;1.60;97.30;;;;;;5020994;28;20651;-82
2021/03/08 01:55:57;;;;;;;22.30;9.90;;;1.60;97.30;;;;;;5020443;28;20492;-81
2021/03/08 01:58:26;;;;;;;20.67;10.10;;;1.60;97.30;;;;;;5021764;28;20486;-81
2021/03/08 02:00:52;;;;;;;20.83;9.70;;;1.60;97.30;;;;;;5020738;28;20191;-82
2021/03/08 02:03:18;;;;;;;20.33;10.10;;;1.60;97.30;;;;;;5021486;28;20443;-82
2021/03/08 02:05:45;;;;;;;18.90;9.73;;;1.60;97.30;;;;;;5020105;28;20483;-82
2021/03/08 02:08:13;;;;;;;19.33;9.60;;;1.60;97.30;;;;;;5019819;28;20196;-81
2021/03/08 02:10:41;;;;;;;23.73;10.20;;;1.60;97.30;;;;;;5019982;28;20435;-82
2021/03/08 02:13:14;;;;;;;17.30;9.20;;;1.60;97.30;;;;;;5020181;28;20417;-81
2021/03/08 02:15:53;;;;;;;24.20;9.97;;;1.50;97.30;;;;;;5020481;28;20475;-81
2021/03/08 02:18:30;;;;;;;22.67;10.73;;;1.50;97.30;;;;;;5019879;28;20430;-81
2021/03/08 02:21:00;;;;;;;23.20;9.70;;;1.60;97.30;;;;;;5021805;28;20834;-81
2021/03/08 02:23:56;;;;;;;17.23;9.87;;;1.60;97.30;;;;;;5019964;28;20458;-81
2021/03/08 02:26:24;;;;;;;25.30;10.50;;;1.60;97.30;;;;;;5020484;28;20788;-81
2021/03/08 02:28:50;;;;;;;21.40;10.10;;;1.70;97.30;;;;;;5020873;28;20496;-81
2021/03/08 02:31:18;;;;;;;20.37;11.27;;;1.70;97.30;;;;;;5020127;28;20456;-82
2021/03/08 02:34:18;;;;;;;26.70;11.27;;;1.70;97.30;;;;;;5019817;28;20185;-82
2021/03/08 02:36:49;;;;;;;24.27;10.30;;;1.70;97.30;;;;;;4999148;28;20429;-81
2021/03/08 02:39:19;;;;;;;28.47;12.50;;;1.70;97.30;;;;;;5019751;28;20401;-81
2021/03/08 02:41:51;;;;;;;31.30;12.40;;;1.70;97.30;;;;;;5019935;28;20466;-81
2021/03/08 02:44:19;;;;;;;25.10;11.70;;;1.80;97.30;;;;;;5020032;28;20528;-80
2021/03/08 02:46:47;;;;;;;34.93;12.97;;;1.80;97.30;;;;;;5021412;28;20422;-81
2021/03/08 02:49:19;;;;;;;28.77;12.40;;;1.80;97.30;;;;;;5003800;28;20432;-80
2021/03/08 02:52:10;;;;;;;27.60;11.57;;;1.80;97.30;;;;;;5019519;28;20416;-81
2021/03/08 02:54:43;;;;;;;24.40;11.70;;;1.70;97.30;;;;;;5018256;28;20837;-80
2021/03/08 02:57:10;;;;;;;27.87;13.83;;;1.80;97.30;;;;;;5017898;28;20446;-80
2021/03/08 02:59:48;;;;;;;31.73;13.37;;;1.80;97.30;;;;;;5017974;28;20439;-80
2021/03/08 03:02:14;;;;;;;29.10;12.90;;;1.80;97.30;;;;;;5018522;28;20420;-81
2021/03/08 03:04:41;;;;;;;27.37;12.50;;;1.80;97.30;;;;;;4993830;28;645908;-80
2021/03/08 03:07:08;;;;;;;30.17;12.60;;;1.80;97.30;;;;;;5009361;28;20185;-80
2021/03/08 03:09:35;;;;;;;33.03;14.07;;;1.70;97.30;;;;;;5019910;28;20430;-80
2021/03/08 03:12:02;;;;;;;30.90;13.30;;;1.80;97.30;;;;;;5020445;28;20850;-80
2021/03/08 03:14:29;;;;;;;30.07;12.80;;;1.70;97.30;;;;;;5019847;28;20510;-80
2021/03/08 03:17:03;;;;;;;29.90;14.33;;;1.70;97.30;;;;;;5020536;28;20423;-79
2021/03/08 03:19:31;;;;;;;29.27;12.20;;;1.70;97.30;;;;;;5020806;28;20763;-81
2021/03/08 03:21:59;;;;;;;27.90;14.33;;;1.70;97.30;;;;;;5019988;28;20443;-80
2021/03/08 03:24:26;;;;;;;29.00;12.80;;;1.70;97.30;;;;;;5020239;28;20436;-80
2021/03/08 03:26:53;;;;;;;28.13;13.23;;;1.70;97.30;;;;;;5021189;28;20503;-80
2021/03/08 03:29:19;;;;;;;32.20;14.07;;;1.80;97.30;;;;;;5020483;28;20416;-80
2021/03/08 03:31:47;;;;;;;32.97;13.40;;;1.90;97.30;;;;;;5020683;28;20426;-80
2021/03/08 03:34:13;;;;;;;29.37;12.33;;;1.90;97.30;;;;;;5020511;28;20475;-81
2021/03/08 03:36:40;;;;;;;31.60;14.17;;;1.90;97.30;;;;;;5021181;28;20422;-80
2021/03/08 03:39:09;;;;;;;28.80;12.93;;;1.90;97.30;;;;;;5021257;28;20480;-81
2021/03/08 03:41:34;;;;;;;30.40;13.60;;;1.80;97.30;;;;;;5021298;28;20408;-82
2021/03/08 03:44:01;;;;;;;29.53;13.90;;;1.80;97.30;;;;;;5021919;28;21241;-79
2021/03/08 03:46:27;;;;;;;33.43;14.67;;;1.80;97.30;;;;;;5018788;28;20178;-81
2021/03/08 03:48:53;;;;;;;35.23;14.50;;;1.80;97.30;;;;;;4995778;28;20563;-81
2021/03/08 03:51:20;;;;;;;33.80;13.53;;;1.90;97.30;;;;;;4995017;28;20455;-80
2021/03/08 03:53:46;;;;;;;32.90;13.37;;;1.90;97.30;;;;;;4995083;28;20708;-80
2021/03/08 03:56:14;;;;;;;33.17;13.60;;;1.90;97.30;;;;;;4995401;28;20452;-81
2021/03/08 03:58:47;;;;;;;34.77;13.63;;;1.90;97.30;;;;;;4995183;28;20205;-81
2021/03/08 04:01:21;;;;;;;30.90;13.73;;;1.80;97.30;;;;;;4993543;28;20924;-80
2021/03/08 04:04:01;;;;;;;33.20;14.87;;;1.80;97.30;;;;;;4993760;28;20405;-80
2021/03/08 04:06:41;;;;;;;38.20;14.80;;;1.80;97.30;;;;;;4993288;28;20432;-81
2021/03/08 04:09:10;;;;;;;26.50;13.10;;;1.80;97.30;;;;;;4995464;28;20499;-80
2021/03/08 04:11:39;;;;;;;38.80;14.47;;;1.80;97.30;;;;;;5000890;28;20417;-80
2021/03/08 04:14:06;;;;;;;34.60;13.20;;;1.90;97.30;;;;;;5004215;28;20441;-80
2021/03/08 04:16:38;;;;;;;33.30;13.37;;;1.80;97.30;;;;;;5003355;28;20452;-80
2021/03/08 04:19:05;;;;;;;39.53;14.67;;;1.80;97.30;;;;;;5003853;28;20420;-80
2021/03/08 04:21:35;;;;;;;37.17;14.80;;;1.80;97.30;;;;;;5004676;28;20462;-80
2021/03/08 04:24:03;;;;;;;32.30;14.03;;;1.80;97.30;;;;;;5004586;28;20998;-80
2021/03/08 04:26:29;;;;;;;35.87;13.30;;;1.80;97.30;;;;;;5001534;28;20920;-80
2021/03/08 04:28:57;;;;;;;32.57;14.63;;;1.80;97.30;;;;;;4998533;28;20472;-81
2021/03/08 04:31:23;;;;;;;30.17;14.20;;;1.80;97.30;;;;;;4998119;28;20184;-81
2021/03/08 04:33:50;;;;;;;33.63;14.33;;;1.80;97.30;;;;;;4998042;28;20472;-81
2021/03/08 04:36:17;;;;;;;40.13;15.63;;;1.80;97.30;;;;;;4997118;28;20206;-82
2021/03/08 04:38:43;;;;;;;36.70;14.80;;;1.80;97.30;;;;;;4995936;28;20445;-80
2021/03/08 04:41:13;;;;;;;37.27;15.80;;;1.90;97.30;;;;;;4996472;28;20459;-81
2021/03/08 04:43:42;;;;;;;37.67;16.40;;;1.90;97.30;;;;;;4996608;28;20468;-81
2021/03/08 04:46:07;;;;;;;35.10;14.63;;;2.00;97.30;;;;;;4996700;28;20417;-82
2021/03/08 04:48:34;;;;;;;35.87;14.63;;;2.00;97.30;;;;;;5016253;28;20423;-82
2021/03/08 04:51:03;;;;;;;36.90;15.47;;;2.00;97.30;;;;;;5015713;28;20177;-81
2021/03/08 04:53:29;;;;;;;41.33;17.27;;;2.10;97.30;;;;;;5016075;28;20411;-81
2021/03/08 04:55:57;;;;;;;46.57;18.77;;;2.10;97.30;;;;;;5016225;28;20470;-80
2021/03/08 04:58:22;;;;;;;40.97;17.30;;;2.10;97.30;;;;;;5016139;28;20404;-81
2021/03/08 05:00:48;;;;;;;53.77;20.93;;;2.20;97.30;;;;;;5016442;28;20787;-81
2021/03/08 05:03:15;;;;;;;53.87;21.57;;;2.20;97.30;;;;;;5016032;28;20173;-81
2021/03/08 05:05:43;;;;;;;70.93;22.37;;;2.20;97.30;;;;;;5016089;28;20801;-81
2021/03/08 05:08:11;;;;;;;61.97;20.83;;;2.20;97.30;;;;;;5016559;28;20409;-81
2021/03/08 05:10:38;;;;;;;57.00;22.07;;;2.30;97.30;;;;;;5017181;28;20420;-81
2021/03/08 05:13:07;;;;;;;61.57;23.03;;;2.30;97.30;;;;;;5017079;28;20420;-81
2021/03/08 05:15:34;;;;;;;66.97;22.23;;;2.30;97.30;;;;;;5018370;28;20546;-81
2021/03/08 05:18:01;;;;;;;67.17;23.50;;;2.30;97.30;;;;;;5016933;28;20420;-82
2021/03/08 05:20:28;;;;;;;57.77;20.50;;;2.30;97.30;;;;;;5017937;28;20420;-81
2021/03/08 05:22:55;;;;;;;59.43;22.90;;;2.30;97.30;;;;;;5017657;28;20500;-81
2021/03/08 05:25:22;;;;;;;60.67;20.93;;;2.30;97.30;;;;;;5015619;28;20436;-82
2021/03/08 05:27:49;;;;;;;62.60;22.23;;;2.30;97.30;;;;;;5015252;28;20423;-81
2021/03/08 05:30:21;;;;;;;59.70;21.53;;;2.30;97.30;;;;;;5015174;28;20902;-81
2021/03/08 05:33:02;;;;;;;66.30;22.50;;;2.30;97.30;;;;;;5014713;28;20428;-81
2021/03/08 05:35:31;;;;;;;57.53;22.17;;;2.30;97.30;;;;;;5014609;28;20463;-82
2021/03/08 05:38:01;;;;;;;61.77;20.90;;;2.30;97.30;;;;;;5014365;28;20404;-82
2021/03/08 05:40:31;;;;;;;51.83;21.17;;;2.30;97.30;;;;;;5013992;28;20934;-81
2021/03/08 05:43:03;;;;;;;55.87;18.40;;;2.30;97.30;;;;;;5014116;28;20405;-81
2021/03/08 05:45:35;;;;;;;63.27;21.37;;;2.30;97.30;;;;;;5014448;28;20464;-82
2021/03/08 05:48:34;;;;;;;54.67;19.30;;;2.30;97.30;;;;;;4998734;28;20496;-81
2021/03/08 05:51:32;;;;;;;60.40;20.70;;;2.30;97.30;;;;;;5000716;28;20565;-80
2021/03/08 05:54:00;;;;;;;60.33;20.53;;;2.30;97.30;;;;;;5007265;28;20456;-82
2021/03/08 05:56:40;;;;;;;65.33;21.93;;;2.30;97.30;;;;;;5007919;28;20552;-82
2021/03/08 05:59:28;;;;;;;54.33;21.00;;;2.30;97.30;;;;;;5011180;28;20412;-82
2021/03/08 06:02:29;;;;;;;55.70;22.00;;;2.30;97.30;;;;;;5006104;28;20440;-81
2021/03/08 06:05:36;;;;;;;62.67;22.80;;;2.30;97.30;;;;;;5012783;28;20708;-81
2021/03/08 06:08:26;;;;;;;57.03;20.10;;;2.30;97.30;;;;;;5007825;28;20439;-81
2021/03/08 06:11:11;;;;;;;50.67;20.47;;;2.30;97.30;;;;;;5013416;28;20431;-81
2021/03/08 06:13:54;;;;;;;61.63;22.10;;;2.40;97.30;;;;;;5019099;28;20422;-80
2021/03/08 06:16:34;;;;;;;57.60;19.23;;;2.40;97.30;;;;;;5034132;28;20495;-82
2021/03/08 06:19:02;;;;;;;54.43;20.03;;;2.40;97.30;;;;;;5005506;28;20523;-81
2021/03/08 06:21:32;;;;;;;55.60;20.07;;;2.40;97.30;;;;;;4988752;28;20506;-81
2021/03/08 06:24:01;;;;;;;55.20;20.63;;;2.40;97.30;;;;;;4990296;28;20443;-81
2021/03/08 06:26:29;;;;;;;62.33;20.67;;;2.40;97.30;;;;;;4990352;28;20453;-81
2021/03/08 06:29:02;;;;;;;50.93;19.20;;;2.40;97.30;;;;;;4987745;28;20424;-82
2021/03/08 06:31:30;;;;;;;47.60;19.27;;;2.40;97.30;;;;;;5003883;28;20421;-82
2021/03/08 06:33:58;;;;;;;51.87;19.53;;;2.40;97.30;;;;;;4986741;28;20441;-81
2021/03/08 06:36:24;;;;;;;46.67;17.97;;;2.40;97.30;;;;;;4989834;28;20465;-81
2021/03/08 06:38:50;;;;;;;63.20;21.80;;;2.40;97.30;;;;;;4985552;28;20418;-82
2021/03/08 06:41:17;;;;;;;54.30;20.27;;;2.40;97.30;;;;;;4986010;28;20413;-82
2021/03/08 06:43:43;;;;;;;48.20;19.13;;;2.50;97.30;;;;;;4984803;28;20481;-81
2021/03/08 06:46:13;;;;;;;46.53;19.10;;;2.50;97.30;;;;;;4992042;28;20432;-82
2021/03/08 06:48:39;;;;;;;50.93;19.10;;;2.50;97.30;;;;;;4991842;28;20476;-82
2021/03/08 06:51:14;;;;;;;54.80;18.20;;;2.60;97.30;;;;;;4989345;28;20448;-81
2021/03/08 06:53:41;;;;;;;52.17;20.27;;;2.60;97.30;;;;;;4985181;28;20255;-81
2021/03/08 06:56:19;;;;;;;49.20;19.10;;;2.80;97.30;;;;;;4987306;28;20444;-81
2021/03/08 06:59:01;;;;;;;44.83;18.13;;;2.80;97.30;;;;;;5007550;28;20791;-80
2021/03/08 07:01:31;;;;;;;50.43;19.10;;;2.80;97.30;;;;;;4998241;28;20439;-82
2021/03/08 07:04:00;;;;;;;56.20;19.70;;;2.80;97.30;;;;;;4996849;28;20432;-79
2021/03/08 07:06:27;;;;;;;55.83;21.33;;;2.80;97.30;;;;;;4957943;28;20465;-81
2021/03/08 07:09:14;;;;;;;49.80;19.73;;;2.80;97.30;;;;;;4975319;28;20413;-81
2021/03/08 07:11:39;;;;;;;56.20;19.27;;;2.90;97.30;;;;;;4979525;28;20412;-80
2021/03/08 07:14:18;;;;;;;50.23;17.97;;;3.00;97.30;;;;;;4972192;28;20442;-79
2021/03/08 07:16:44;;;;;;;48.23;19.77;;;3.00;97.30;;;;;;4982259;28;20174;-80
2021/03/08 07:19:10;;;;;;;47.13;18.60;;;2.90;97.30;;;;;;4979928;28;20424;-80
2021/03/08 07:21:36;;;;;;;48.90;19.70;;;2.90;97.30;;;;;;4977027;28;20410;-80
2021/03/08 07:24:15;;;;;;;51.53;19.93;;;2.90;97.30;;;;;;4980501;28;20492;-80
2021/03/08 07:26:54;;;;;;;42.87;17.90;;;2.90;97.30;;;;;;4970221;28;20504;-79
2021/03/08 07:29:22;;;;;;;47.80;18.30;;;2.90;97.30;;;;;;4969601;28;20444;-81
2021/03/08 07:31:53;;;;;;;42.67;17.17;;;2.90;97.30;;;;;;4971464;28;20442;-81
2021/03/08 07:34:20;;;;;;;47.67;19.17;;;2.90;97.30;;;;;;4987976;28;20452;-81
2021/03/08 07:37:02;;;;;;;44.80;17.77;;;2.80;97.30;;;;;;4963439;28;20430;-79
2021/03/08 07:39:29;;;;;;;46.43;17.90;;;2.70;97.30;;;;;;4973571;28;20465;-81
2021/03/08 07:41:58;;;;;;;49.03;19.03;;;2.70;97.30;;;;;;4977557;28;20434;-82
2021/03/08 07:44:28;;;;;;;46.70;17.47;;;2.70;97.30;;;;;;4977171;28;20455;-82
2021/03/08 07:46:56;;;;;;;51.70;18.20;;;2.70;97.30;;;;;;4990858;28;20417;-80
2021/03/08 07:49:36;;;;;;;35.90;15.20;;;2.70;97.30;;;;;;4973037;28;20433;-77
2021/03/08 07:52:13;;;;;;;33.60;14.47;;;2.60;97.30;;;;;;4974182;28;20432;-81
2021/03/08 07:55:02;;;;;;;36.17;14.30;;;2.60;97.30;;;;;;5000636;28;20468;-81
2021/03/08 07:57:30;;;;;;;32.63;13.40;;;2.60;97.30;;;;;;4970016;28;20483;-82
2021/03/08 07:59:56;;;;;;;34.47;14.27;;;2.60;97.30;;;;;;4969697;28;20479;-81
2021/03/08 08:02:22;;;;;;;36.97;13.77;;;2.70;97.30;;;;;;4975454;28;20573;-82
2021/03/08 08:04:48;;;;;;;32.27;13.37;;;2.70;97.30;;;;;;4983505;28;20507;-81
2021/03/08 08:07:18;;;;;;;31.73;13.30;;;2.80;97.30;;;;;;4992511;28;20418;-80
2021/03/08 08:09:46;;;;;;;33.33;12.50;;;2.80;97.30;;;;;;4963557;28;20186;-81
2021/03/08 08:12:14;;;;;;;24.57;11.17;;;2.90;97.30;;;;;;4963642;28;21054;-82
2021/03/08 08:14:41;;;;;;;29.03;11.07;;;2.90;97.30;;;;;;4963891;28;20518;-81
2021/03/08 08:17:17;;;;;;;25.80;11.33;;;3.00;97.30;;;;;;4964004;28;20425;-82
2021/03/08 08:19:47;;;;;;;30.10;12.07;;;3.00;97.30;;;;;;4964210;28;20472;-82
2021/03/08 08:22:23;;;;;;;26.07;11.70;;;3.10;97.30;;;;;;4963748;28;20508;-81
2021/03/08 08:24:52;;;;;;;31.17;10.60;;;3.10;97.30;;;;;;4977255;28;20444;-81
2021/03/08 08:27:19;;;;;;;31.17;13.40;;;3.10;97.30;;;;;;4974337;28;20431;-82
2021/03/08 08:29:46;;;;;;;38.13;12.33;;;3.10;97.30;;;;;;4983062;28;20499;-82
2021/03/08 08:32:13;;;;;;;29.30;12.67;;;3.10;97.30;;;;;;4979576;28;20440;-82
2021/03/08 08:34:43;;;;;;;33.83;12.47;;;3.10;97.30;;;;;;4982260;28;20452;-81
2021/03/08 08:37:15;;;;;;;34.60;13.63;;;3.20;97.30;;;;;;5001397;28;20428;-81
2021/03/08 08:39:50;;;;;;;27.63;12.33;;;3.20;97.30;;;;;;4984205;28;20948;-82
2021/03/08 08:42:28;;;;;;;30.30;12.30;;;3.20;97.30;;;;;;4983455;28;20562;-82
2021/03/08 08:44:55;;;;;;;28.03;12.17;;;3.10;97.30;;;;;;4964034;28;20480;-82
2021/03/08 08:47:32;;;;;;;31.77;11.70;;;3.30;97.30;;;;;;4993834;28;20934;-82
2021/03/08 08:50:06;;;;;;;25.17;10.70;;;3.50;97.30;;;;;;4999448;28;20399;-78
2021/03/08 08:52:56;;;;;;;31.40;12.20;;;3.80;97.30;;;;;;4972356;28;20426;-82
2021/03/08 08:55:22;;;;;;;20.73;9.50;;;4.00;97.30;;;;;;4981471;28;20450;-81
2021/03/08 08:58:19;;;;;;;27.60;10.00;;;4.10;97.30;;;;;;4977226;28;20513;-81
2021/03/08 09:01:15;;;;;;;21.47;9.67;;;4.20;97.30;;;;;;4964918;28;20794;-82
2021/03/08 09:03:55;;;;;;;19.70;8.70;;;4.20;97.30;;;;;;4965632;28;20414;-82
2021/03/08 09:06:41;;;;;;;26.90;10.50;;;4.30;97.30;;;;;;4979735;28;20811;-81
2021/03/08 09:09:07;;;;;;;19.63;9.30;;;4.60;97.30;;;;;;4980159;28;20479;-82
2021/03/08 09:11:54;;;;;;;20.50;9.10;;;4.80;97.30;;;;;;4983918;28;20467;-82
2021/03/08 09:14:25;;;;;;;24.37;9.50;;;5.00;97.30;;;;;;5001282;28;20428;-80
2021/03/08 09:17:20;;;;;;;25.57;10.97;;;5.20;97.30;;;;;;4983150;28;20932;-83
2021/03/08 09:19:57;;;;;;;20.80;8.40;;;5.00;97.30;;;;;;4997543;28;20939;-81
2021/03/08 09:22:30;;;;;;;20.40;8.80;;;4.70;97.30;;;;;;4978180;28;20476;-82
2021/03/08 09:24:56;;;;;;;19.13;9.50;;;4.50;97.30;;;;;;4969886;28;21115;-83
2021/03/08 09:27:24;;;;;;;16.70;8.70;;;4.30;97.30;;;;;;4963782;28;20925;-83
2021/03/08 09:29:51;;;;;;;18.90;8.87;;;4.30;97.30;;;;;;4964405;28;20494;-84
2021/03/08 09:32:17;;;;;;;19.93;8.40;;;4.40;97.30;;;;;;4980942;28;20441;-82
2021/03/08 09:34:43;;;;;;;15.97;8.00;;;4.50;97.30;;;;;;4963000;28;20839;-82
2021/03/08 09:37:10;;;;;;;16.10;7.70;;;4.70;97.30;;;;;;4979319;28;20414;-81
2021/03/08 09:39:57;;;;;;;18.33;7.93;;;4.80;97.30;;;;;;4963182;28;20418;-81
2021/03/08 09:42:22;;;;;;;15.87;8.17;;;4.80;97.30;;;;;;4980637;28;20418;-82
2021/03/08 09:44:49;;;;;;;15.73;7.40;;;4.90;97.30;;;;;;4962823;28;20505;-81
2021/03/08 09:47:16;;;;;;;17.73;7.60;;;5.10;97.30;;;;;;4964793;28;20186;-79
2021/03/08 09:49:54;;;;;;;14.00;7.13;;;5.20;97.30;;;;;;4961687;28;20429;-81
2021/03/08 09:52:40;;;;;;;15.77;8.03;;;5.40;97.30;;;;;;4975959;28;20979;-81
2021/03/08 09:55:08;;;;;;;11.80;7.37;;;5.40;96.10;;;;;;4969583;28;20492;-81
2021/03/08 09:57:38;;;;;;;14.03;7.13;;;5.50;96.60;;;;;;4963457;28;20928;-82
2021/03/08 10:00:07;;;;;;;16.43;6.37;;;5.50;96.50;;;;;;4963279;28;20948;-80
2021/03/08 10:02:33;;;;;;;15.80;7.03;;;5.50;94.80;;;;;;4990956;28;20512;-82
2021/03/08 10:04:59;;;;;;;15.17;7.83;;;5.50;94.40;;;;;;4975686;28;20525;-82
2021/03/08 10:07:25;;;;;;;14.83;6.40;;;5.60;93.60;;;;;;4996147;28;20189;-82
2021/03/08 10:10:12;;;;;;;18.70;7.37;;;5.60;94.30;;;;;;4981985;28;20425;-83
2021/03/08 10:12:38;;;;;;;13.97;6.77;;;5.70;94.70;;;;;;4976186;28;20438;-81
2021/03/08 10:15:06;;;;;;;8.83;5.23;;;5.90;93.90;;;;;;4962515;28;20569;-81
2021/03/08 10:17:32;;;;;;;9.83;5.27;;;5.90;92.30;;;;;;4966747;28;20422;-82
2021/03/08 10:20:00;;;;;;;12.43;6.20;;;5.90;90.90;;;;;;4966816;28;20426;-81
2021/03/08 10:22:35;;;;;;;14.83;5.67;;;6.00;90.90;;;;;;4980684;28;20421;-80
2021/03/08 10:25:22;;;;;;;14.37;7.20;;;6.10;91.90;;;;;;4983275;28;20495;-82
2021/03/08 10:28:02;;;;;;;14.23;6.20;;;6.20;92.10;;;;;;4990606;28;20437;-81
2021/03/08 10:30:29;;;;;;;15.47;7.80;;;6.30;91.90;;;;;;4987305;28;20439;-80
2021/03/08 10:33:03;;;;;;;11.50;6.30;;;6.40;90.60;;;;;;4974108;28;20434;-80
2021/03/08 10:35:38;;;;;;;13.87;5.60;;;6.50;92.30;;;;;;4976867;28;20498;-79
2021/03/08 10:38:05;;;;;;;11.50;5.23;;;6.60;91.80;;;;;;4963039;28;20425;-81
2021/03/08 10:40:31;;;;;;;12.53;5.80;;;6.70;88.80;;;;;;4979088;28;20426;-81
2021/03/08 10:42:57;;;;;;;14.97;5.57;;;6.70;88.70;;;;;;4962806;28;20479;-81
2021/03/08 10:45:23;;;;;;;9.20;5.23;;;6.80;88.10;;;;;;4960518;28;20449;-82
2021/03/08 10:48:10;;;;;;;10.40;5.50;;;6.80;88.60;;;;;;4995602;28;20437;-84
2021/03/08 10:50:52;;;;;;;12.97;5.47;;;7.00;89.00;;;;;;4981600;28;20421;-82
2021/03/08 10:53:19;;;;;;;9.30;5.10;;;7.00;86.10;;;;;;4999118;28;20427;-82
2021/03/08 10:55:45;;;;;;;12.83;5.90;;;7.10;86.90;;;;;;4979973;28;20464;-82
2021/03/08 10:58:11;;;;;;;13.13;5.60;;;7.10;86.50;;;;;;4982318;28;20417;-81
2021/03/08 11:00:38;;;;;;;15.80;5.93;;;7.20;88.00;;;;;;4982278;28;20511;-81
2021/03/08 11:03:04;;;;;;;13.43;6.33;;;7.20;86.40;;;;;;4981108;28;20178;-81
2021/03/08 11:05:32;;;;;;;9.70;4.93;;;7.20;87.30;;;;;;4970847;28;20483;-81
2021/03/08 11:08:00;;;;;;;11.10;5.60;;;7.40;88.90;;;;;;4978030;28;20441;-82
2021/03/08 11:10:35;;;;;;;7.53;4.13;;;7.60;87.10;;;;;;4964406;28;20430;-82
2021/03/08 11:13:03;;;;;;;9.50;4.67;;;7.60;84.50;;;;;;4963633;28;20421;-81
2021/03/08 11:15:32;;;;;;;7.83;3.93;;;7.60;81.80;;;;;;4962232;28;20489;-80
2021/03/08 11:17:58;;;;;;;8.20;4.00;;;7.60;81.70;;;;;;4962543;28;20425;-81
2021/03/08 11:20:30;;;;;;;9.03;4.07;;;7.30;79.40;;;;;;4962624;28;20933;-82
2021/03/08 11:22:59;;;;;;;10.80;4.30;;;7.30;81.70;;;;;;4962004;28;20486;-81
2021/03/08 11:25:39;;;;;;;15.87;4.27;;;7.40;80.60;;;;;;4961057;28;20453;-81
2021/03/08 11:28:13;;;;;;;8.40;4.83;;;7.20;79.40;;;;;;4961451;28;20436;-81
2021/03/08 11:30:51;;;;;;;6.10;3.97;;;7.20;82.30;;;;;;4961967;28;20426;-80
2021/03/08 11:33:21;;;;;;;6.80;4.17;;;7.50;85.50;;;;;;4964002;28;20432;-81
2021/03/08 11:35:52;;;;;;;8.60;4.50;;;7.70;83.40;;;;;;4980623;28;20472;-81
2021/03/08 11:38:23;;;;;;;9.90;4.60;;;7.70;82.20;;;;;;4981307;28;21202;-80
2021/03/08 11:40:49;;;;;;;8.00;4.00;;;7.90;84.00;;;;;;4980142;28;20421;-81
2021/03/08 11:43:16;;;;;;;10.40;5.10;;;8.00;81.40;;;;;;4961793;28;20434;-80
2021/03/08 11:45:42;;;;;;;8.27;4.17;;;8.10;81.70;;;;;;4979690;28;20451;-80
2021/03/08 11:48:08;;;;;;;8.60;3.77;;;7.90;79.50;;;;;;4980670;28;20511;-81
2021/03/08 11:50:36;;;;;;;7.77;4.20;;;7.70;79.90;;;;;;4979903;28;20218;-82
2021/03/08 11:53:02;;;;;;;7.33;4.33;;;7.40;80.30;;;;;;4975792;28;20430;-81
2021/03/08 11:55:28;;;;;;;7.97;4.07;;;7.50;80.90;;;;;;4960529;28;20468;-81
2021/03/08 11:57:54;;;;;;;14.33;4.00;;;7.80;81.40;;;;;;4961469;28;20989;-82
2021/03/08 12:00:22;;;;;;;8.47;3.93;;;7.70;77.90;;;;;;4960710;28;20444;-81
2021/03/08 12:02:48;;;;;;;8.00;4.70;;;7.30;78.50;;;;;;4960080;28;20186;-80
2021/03/08 12:05:14;;;;;;;7.07;4.27;;;7.10;79.80;;;;;;4977087;28;21025;-81
2021/03/08 12:07:41;;;;;;;7.73;4.33;;;7.30;82.50;;;;;;4996250;28;20938;-80
2021/03/08 12:10:09;;;;;;;11.13;4.20;;;7.80;81.00;;;;;;4996819;28;20417;-80
2021/03/08 12:12:35;;;;;;;9.97;4.23;;;8.30;79.60;;;;;;4999854;28;20424;-80
2021/03/08 12:15:01;;;;;;;9.87;4.40;;;8.50;78.90;;;;;;5018934;28;20551;-81
2021/03/08 12:17:27;;;;;;;8.83;4.63;;;8.70;78.20;;;;;;5021009;28;20181;-81
2021/03/08 12:19:52;;;;;;;6.70;3.93;;;9.10;78.90;;;;;;5022277;28;20954;-80
2021/03/08 12:22:18;;;;;;;6.57;3.40;;;9.40;79.00;;;;;;5021524;28;20280;-81
2021/03/08 12:24:44;;;;;;;7.03;3.57;;;9.60;77.20;;;;;;5021702;28;20193;-80
2021/03/08 12:27:10;;;;;;;6.30;3.27;;;9.50;76.00;;;;;;5023134;28;20178;-82
2021/03/08 12:29:36;;;;;;;7.83;3.67;;;9.40;75.60;;;;;;5021496;28;20419;-81
2021/03/08 12:32:04;;;;;;;7.30;3.57;;;9.70;76.20;;;;;;5021765;28;20205;-81
2021/03/08 12:34:29;;;;;;;7.60;3.70;;;10.10;75.20;;;;;;5020384;28;20240;-82
2021/03/08 12:36:55;;;;;;;6.47;3.10;;;9.90;71.30;;;;;;5022141;28;20531;-81
2021/03/08 12:39:20;;;;;;;6.37;3.30;;;9.40;73.50;;;;;;5022218;28;20235;-81
2021/03/08 12:41:46;;;;;;;6.83;3.30;;;9.30;72.80;;;;;;5021293;28;20177;-82
2021/03/08 12:44:12;;;;;;;4.23;2.80;;;9.50;74.60;;;;;;5021438;28;20205;-81
2021/03/08 12:46:38;;;;;;;4.67;3.07;;;9.90;72.20;;;;;;5023269;28;20420;-81
2021/03/08 12:49:03;;;;;;;5.23;3.30;;;9.90;71.20;;;;;;5021520;28;20188;-81
2021/03/08 12:51:29;;;;;;;4.53;2.83;;;9.60;70.50;;;;;;5022346;28;20570;-81
2021/03/08 12:53:54;;;;;;;4.87;2.80;;;9.70;71.50;;;;;;5021202;28;20208;-81
2021/03/08 12:56:20;;;;;;;4.87;3.10;;;10.10;71.50;;;;;;5022635;28;20201;-81
2021/03/08 12:58:48;;;;;;;5.97;3.33;;;10.40;69.00;;;;;;5022349;28;20220;-81